createdAt,value
2022-08-29T00:00:54.135Z,77.46
2022-08-29T00:03:58.035Z,77.42
2022-08-29T00:06:59.778Z,77.63
2022-08-29T00:10:01.616Z,77.87
2022-08-29T00:13:05.489Z,77.76
2022-08-29T00:16:08.587Z,78.08
2022-08-29T00:19:10.389Z,78.21
2022-08-29T00:22:12.062Z,78.19
2022-08-29T00:25:14.469Z,78.46
2022-08-29T00:28:16.372Z,78.90
2022-08-29T00:31:18.227Z,78.74
2022-08-29T00:34:19.997Z,79.08
2022-08-29T00:37:21.697Z,79.01
2022-08-29T00:40:31.485Z,79.30
2022-08-29T00:43:36.223Z,79.54
2022-08-29T00:46:50.859Z,79.75
2022-08-29T00:49:55.782Z,79.85
2022-08-29T00:52:59.292Z,79.89
2022-08-29T00:56:03.793Z,80.04
2022-08-29T00:59:26.015Z,80.09
2022-08-29T01:02:29.488Z,80.15
2022-08-29T01:05:32.003Z,80.38
2022-08-29T01:08:33.839Z,80.35
2022-08-29T01:11:54.743Z,80.39
2022-08-29T01:15:01.265Z,80.48
2022-08-29T01:18:06.283Z,80.68
2022-08-29T01:21:14.245Z,80.82
2022-08-29T01:24:15.929Z,81.00
2022-08-29T01:27:20.882Z,80.98
2022-08-29T01:30:22.809Z,81.12
2022-08-29T01:33:24.577Z,81.56
2022-08-29T01:36:33.287Z,81.57
2022-08-29T01:39:45.225Z,81.72
2022-08-29T01:42:49.356Z,81.74
2022-08-29T01:45:51.151Z,81.94
2022-08-29T01:48:53.432Z,82.24
2022-08-29T01:51:55.185Z,82.20
2022-08-29T01:54:56.875Z,82.72
2022-08-29T01:57:58.580Z,82.74
2022-08-29T02:01:00.324Z,82.99
2022-08-29T02:04:02.256Z,83.42
2022-08-29T02:07:04.028Z,83.61
2022-08-29T02:10:07.050Z,83.74
2022-08-29T02:13:08.748Z,83.62
2022-08-29T02:16:10.459Z,83.63
2022-08-29T02:19:12.221Z,83.88
2022-08-29T02:22:14.279Z,83.87
2022-08-29T02:25:34.577Z,84.11
2022-08-29T02:28:37.835Z,84.41
2022-08-29T02:31:40.935Z,84.89
2022-08-29T02:34:44.665Z,85.38
2022-08-29T02:37:49.482Z,85.52
2022-08-29T02:40:51.684Z,85.73
2022-08-29T02:43:53.485Z,86.08
2022-08-29T02:46:55.332Z,86.43
2022-08-29T02:49:57.143Z,86.42
2022-08-29T02:53:01.460Z,86.27
2022-08-29T02:56:03.509Z,86.16
2022-08-29T02:59:05.504Z,86.26
2022-08-29T03:02:07.625Z,86.43
2022-08-29T03:05:10.129Z,86.88
2022-08-29T03:08:16.272Z,86.97
2022-08-29T03:13:06.792Z,87.02
2022-08-29T03:15:19.975Z,87.05
2022-08-29T03:18:22.067Z,87.11
2022-08-29T03:22:22.082Z,86.78
2022-08-29T03:35:44.710Z,87.96
2022-08-29T03:49:29.121Z,88.73
2022-08-29T03:51:38.366Z,89.29
2022-08-29T03:55:35.699Z,89.71
2022-08-29T04:03:30.908Z,90.36
2022-08-29T04:06:40.267Z,90.40
2022-08-29T04:09:47.357Z,90.93
2022-08-29T04:12:54.258Z,91.42
2022-08-29T04:15:56.665Z,90.85
2022-08-29T04:18:58.950Z,90.72
2022-08-29T04:22:01.014Z,90.66
2022-08-29T04:25:04.781Z,90.97
2022-08-29T04:28:11.982Z,90.76
2022-08-29T04:31:23.045Z,90.86
2022-08-29T04:34:26.042Z,90.99
2022-08-29T04:37:32.882Z,90.88
2022-08-29T04:40:38.217Z,90.73
2022-08-29T04:43:42.896Z,90.60
2022-08-29T04:46:44.690Z,90.54
2022-08-29T04:49:46.426Z,90.27
2022-08-29T04:52:48.904Z,90.47
2022-08-29T04:56:06.518Z,90.22
2022-08-29T04:59:23.055Z,90.07
2022-08-29T05:02:25.668Z,90.16
2022-08-29T05:05:27.936Z,89.81
2022-08-29T05:08:30.092Z,89.77
2022-08-29T05:11:32.833Z,89.54
2022-08-29T05:14:35.095Z,89.51
2022-08-29T05:17:37.168Z,89.29
2022-08-29T05:20:43.839Z,89.05
2022-08-29T05:23:45.570Z,88.99
2022-08-29T05:26:47.268Z,89.07
2022-08-29T05:29:51.445Z,88.88
2022-08-29T05:32:55.008Z,88.49
2022-08-29T05:35:57.565Z,88.61
2022-08-29T05:39:01.106Z,88.59
2022-08-29T05:42:03.329Z,88.70
2022-08-29T05:45:05.995Z,89.75
2022-08-29T05:48:09.591Z,89.38
2022-08-29T05:51:19.562Z,89.21
2022-08-29T05:54:21.606Z,89.27
2022-08-29T05:57:25.856Z,89.29
2022-08-29T06:00:27.771Z,89.57
2022-08-29T06:03:29.567Z,89.43
2022-08-29T06:06:31.424Z,89.66
2022-08-29T06:09:33.381Z,89.70
2022-08-29T06:12:36.016Z,89.67
2022-08-29T06:15:37.980Z,89.01
2022-08-29T06:18:40.739Z,88.72
2022-08-29T06:21:42.417Z,88.53
2022-08-29T06:24:45.334Z,88.29
2022-08-29T06:27:48.924Z,88.22
2022-08-29T06:30:50.684Z,88.38
2022-08-29T06:33:54.696Z,88.34
2022-08-29T06:36:56.634Z,88.47
2022-08-29T06:39:58.387Z,88.34
2022-08-29T06:43:00.111Z,88.47
2022-08-29T06:46:01.988Z,87.44
2022-08-29T06:49:05.516Z,86.62
2022-08-29T06:52:07.215Z,86.26
2022-08-29T06:55:12.912Z,85.25
2022-08-29T06:58:18.807Z,84.01
2022-08-29T07:01:21.761Z,84.14
2022-08-29T07:04:26.611Z,84.47
2022-08-29T07:07:28.642Z,84.25
2022-08-29T07:10:35.654Z,84.20
2022-08-29T07:13:37.399Z,84.27
2022-08-29T07:16:41.107Z,84.24
2022-08-29T07:19:42.970Z,84.24
2022-08-29T07:22:47.522Z,83.77
2022-08-29T07:25:49.249Z,82.90
2022-08-29T07:28:54.013Z,82.29
2022-08-29T07:31:55.898Z,81.48
2022-08-29T07:34:57.915Z,80.94
2022-08-29T07:38:01.443Z,79.85
2022-08-29T07:41:08.850Z,78.85
2022-08-29T07:44:11.667Z,78.50
2022-08-29T07:47:13.375Z,77.94
2022-08-29T07:50:15.114Z,77.84
2022-08-29T07:53:17.636Z,77.17
2022-08-29T07:56:25.203Z,77.38
2022-08-29T07:59:27.110Z,77.12
2022-08-29T08:02:29.029Z,77.00
2022-08-29T08:05:33.761Z,76.69
2022-08-29T08:08:35.626Z,76.07
2022-08-29T08:11:43.683Z,75.36
2022-08-29T08:14:57.032Z,75.32
2022-08-29T08:17:58.772Z,75.31
2022-08-29T08:21:00.419Z,75.56
2022-08-29T08:24:02.587Z,75.88
2022-08-29T08:27:04.796Z,76.22
2022-08-29T08:30:07.197Z,76.81
2022-08-29T08:33:09.957Z,77.02
2022-08-29T08:36:30.949Z,77.64
2022-08-29T08:39:32.649Z,78.06
2022-08-29T08:42:42.583Z,77.67
2022-08-29T08:45:46.413Z,77.67
2022-08-29T08:48:49.749Z,78.00
2022-08-29T08:51:59.862Z,78.31
2022-08-29T08:55:07.412Z,78.76
2022-08-29T08:58:29.342Z,79.88
2022-08-29T09:01:43.404Z,80.58
2022-08-29T09:05:20.477Z,81.31
2022-08-29T09:08:58.678Z,81.79
2022-08-29T09:12:06.835Z,81.42
2022-08-29T09:15:20.257Z,81.60
2022-08-29T09:18:32.349Z,81.30
2022-08-29T09:21:48.643Z,81.14
2022-08-29T09:25:04.038Z,81.13
2022-08-29T09:28:07.932Z,81.45
2022-08-29T09:31:28.511Z,81.77
2022-08-29T09:34:57.416Z,81.03
2022-08-29T09:38:25.789Z,81.20
2022-08-29T09:41:31.164Z,81.20
2022-08-29T09:44:35.435Z,81.06
2022-08-29T09:47:37.329Z,80.74
2022-08-29T09:50:39.679Z,80.40
2022-08-29T09:53:42.844Z,80.16
2022-08-29T09:56:59.668Z,79.04
2022-08-29T10:00:12.431Z,79.08
2022-08-29T10:03:22.879Z,78.32
2022-08-29T10:06:32.591Z,78.16
2022-08-29T10:09:34.901Z,78.41
2022-08-29T10:13:15.206Z,76.99
2022-08-29T10:16:27.237Z,76.61
2022-08-29T10:19:34.289Z,76.25
2022-08-29T10:22:44.162Z,75.17
2022-08-29T10:25:46.329Z,74.32
2022-08-29T10:29:16.123Z,73.17
2022-08-29T10:32:49.264Z,72.63
2022-08-29T10:36:09.693Z,72.63
2022-08-29T10:39:17.921Z,72.06
2022-08-29T10:42:25.488Z,71.01
2022-08-29T10:46:00.218Z,71.22
2022-08-29T10:49:23.052Z,71.08
2022-08-29T10:53:06.298Z,71.60
2022-08-29T10:56:18.957Z,72.23
2022-08-29T10:59:58.267Z,71.76
2022-08-29T11:03:36.204Z,72.34
2022-08-29T11:06:43.925Z,71.61
2022-08-29T11:09:52.122Z,69.65
2022-08-29T11:13:01.411Z,68.23
2022-08-29T11:16:08.659Z,68.47
2022-08-29T11:19:27.408Z,67.65
2022-08-29T11:22:37.979Z,66.92
2022-08-29T11:25:42.017Z,66.13
2022-08-29T11:29:10.154Z,65.66
2022-08-29T11:32:38.874Z,65.17
2022-08-29T11:35:49.592Z,64.91
2022-08-29T11:39:20.157Z,65.18
2022-08-29T11:46:01.630Z,65.69
2022-08-29T11:49:32.084Z,66.93
2022-08-29T11:52:35.274Z,66.85
2022-08-29T11:55:43.243Z,65.96
2022-08-29T11:58:50.233Z,65.51
2022-08-29T12:02:01.074Z,63.72
2022-08-29T12:05:02.751Z,62.50
2022-08-29T12:08:36.440Z,62.81
2022-08-29T12:12:02.759Z,61.71
2022-08-29T12:15:26.415Z,61.82
2022-08-29T12:18:36.646Z,60.38
2022-08-29T12:21:39.254Z,60.78
2022-08-29T12:24:43.141Z,60.59
2022-08-29T12:28:07.084Z,60.99
2022-08-29T12:32:08.614Z,59.81
2022-08-29T12:35:31.339Z,58.89
2022-08-29T12:42:41.695Z,57.96
2022-08-29T12:45:50.644Z,59.75
2022-08-29T12:49:24.156Z,60.63
2022-08-29T12:52:30.502Z,60.63
2022-08-29T12:55:42.135Z,60.29
2022-08-29T12:58:47.152Z,59.74
2022-08-29T13:01:56.105Z,57.98
2022-08-29T13:04:59.545Z,60.46
2022-08-29T13:08:11.078Z,60.58
2022-08-29T13:11:21.450Z,60.62
2022-08-29T13:14:23.791Z,62.05
2022-08-29T13:17:37.276Z,61.99
2022-08-29T13:20:40.235Z,61.89
2022-08-29T13:23:45.965Z,60.49
2022-08-29T13:27:05.575Z,59.92
2022-08-29T13:30:08.469Z,57.71
2022-08-29T13:33:35.162Z,57.65
2022-08-29T13:37:10.608Z,58.36
2022-08-29T13:40:44.935Z,58.69
2022-08-29T13:43:48.996Z,56.92
2022-08-29T13:46:52.639Z,57.68
2022-08-29T13:49:59.887Z,57.21
2022-08-29T13:53:01.567Z,57.74
2022-08-29T13:56:04.094Z,57.91
2022-08-29T13:59:06.744Z,57.66
2022-08-29T14:02:10.043Z,58.32
2022-08-29T14:05:13.711Z,57.86
2022-08-29T14:08:15.956Z,57.91
2022-08-29T14:11:18.061Z,57.07
2022-08-29T14:14:19.995Z,57.71
2022-08-29T14:17:23.660Z,56.25
2022-08-29T14:20:25.722Z,56.67
2022-08-29T14:23:27.807Z,57.17
2022-08-29T14:26:29.464Z,57.55
2022-08-29T14:29:32.325Z,55.05
2022-08-29T14:32:34.111Z,55.83
2022-08-29T14:35:36.248Z,55.99
2022-08-29T14:38:44.091Z,56.56
2022-08-29T14:41:46.190Z,55.89
2022-08-29T14:44:48.053Z,56.40
2022-08-29T14:47:49.728Z,55.95
2022-08-29T14:50:51.408Z,56.47
2022-08-29T14:53:54.476Z,57.44
2022-08-29T14:56:56.498Z,57.92
2022-08-29T14:59:58.187Z,58.02
2022-08-29T15:03:00.323Z,56.46
2022-08-29T15:06:05.264Z,56.80
2022-08-29T15:09:07.060Z,57.30
2022-08-29T15:12:08.893Z,57.00
2022-08-29T15:15:11.469Z,56.85
2022-08-29T15:18:30.528Z,57.19
2022-08-29T15:21:36.081Z,57.59
2022-08-29T15:24:39.642Z,58.23
2022-08-29T15:27:41.910Z,58.31
2022-08-29T15:30:43.629Z,58.68
2022-08-29T15:33:45.329Z,58.43
2022-08-29T15:36:46.983Z,58.76
2022-08-29T15:39:50.608Z,58.77
2022-08-29T15:42:56.338Z,58.21
2022-08-29T15:45:59.810Z,58.76
2022-08-29T15:49:01.917Z,58.88
2022-08-29T15:52:03.770Z,58.23
2022-08-29T15:55:06.384Z,57.06
2022-08-29T15:58:08.090Z,57.13
2022-08-29T16:01:10.861Z,56.38
2022-08-29T16:04:15.076Z,55.64
2022-08-29T16:07:18.049Z,55.38
2022-08-29T16:10:19.854Z,55.66
2022-08-29T16:13:21.654Z,54.97
2022-08-29T16:16:24.409Z,55.30
2022-08-29T16:19:26.169Z,55.98
2022-08-29T16:22:28.503Z,56.01
2022-08-29T16:25:31.904Z,54.57
2022-08-29T16:28:33.807Z,54.70
2022-08-29T16:31:36.128Z,54.43
2022-08-29T16:34:38.401Z,54.42
2022-08-29T16:37:40.525Z,53.69
2022-08-29T16:40:42.250Z,53.73
2022-08-29T16:43:49.731Z,53.71
2022-08-29T16:46:51.907Z,54.54
2022-08-29T16:49:53.736Z,55.08
2022-08-29T16:52:55.983Z,54.45
2022-08-29T16:55:58.054Z,54.87
2022-08-29T16:59:00.219Z,53.90
2022-08-29T17:02:02.500Z,54.28
2022-08-29T17:05:04.786Z,55.25
2022-08-29T17:08:06.425Z,55.42
2022-08-29T17:11:08.172Z,55.75
2022-08-29T17:14:10.679Z,56.18
2022-08-29T17:17:12.313Z,56.84
2022-08-29T17:20:15.036Z,57.19
2022-08-29T17:23:16.670Z,57.62
2022-08-29T17:26:19.059Z,58.00
2022-08-29T17:29:20.706Z,58.05
2022-08-29T17:32:22.977Z,57.89
2022-08-29T17:35:24.687Z,58.04
2022-08-29T17:38:26.629Z,58.93
2022-08-29T17:41:28.272Z,59.27
2022-08-29T17:44:34.965Z,59.97
2022-08-29T17:47:37.042Z,60.39
2022-08-29T17:50:39.141Z,60.29
2022-08-29T17:53:40.935Z,60.97
2022-08-29T17:57:01.318Z,61.64
2022-08-29T18:00:05.588Z,62.58
2022-08-29T18:03:12.315Z,63.10
2022-08-29T18:06:15.228Z,63.73
2022-08-29T18:09:17.215Z,63.88
2022-08-29T18:12:20.339Z,64.17
2022-08-29T18:15:22.320Z,64.79
2022-08-29T18:18:25.386Z,65.31
2022-08-29T18:21:29.492Z,65.30
2022-08-29T18:24:31.213Z,65.72
2022-08-29T18:27:33.797Z,66.00
2022-08-29T18:30:35.682Z,66.20
2022-08-29T18:33:59.102Z,66.31
2022-08-29T18:36:59.079Z,66.59
2022-08-29T18:40:00.757Z,66.15
2022-08-29T18:43:02.578Z,66.57
2022-08-29T18:46:04.597Z,66.87
2022-08-29T18:49:06.741Z,67.07
2022-08-29T18:52:09.496Z,67.32
2022-08-29T18:55:15.721Z,67.16
2022-08-29T18:58:19.142Z,67.38
2022-08-29T19:01:27.622Z,67.40
2022-08-29T19:04:29.807Z,67.84
2022-08-29T19:07:31.532Z,68.14
2022-08-29T19:10:33.353Z,68.23
2022-08-29T19:13:35.406Z,68.37
2022-08-29T19:16:37.381Z,68.94
2022-08-29T19:19:57.688Z,69.40
2022-08-29T19:22:59.580Z,69.67
2022-08-29T19:26:03.440Z,70.13
2022-08-29T19:29:14.059Z,70.35
2022-08-29T19:32:15.767Z,70.47
2022-08-29T19:35:18.274Z,70.69
2022-08-29T19:38:22.981Z,70.86
2022-08-29T19:41:25.233Z,71.35
2022-08-29T19:44:27.013Z,71.80
2022-08-29T19:47:29.280Z,71.64
2022-08-29T19:50:31.058Z,72.29
2022-08-29T19:53:32.761Z,72.34
2022-08-29T19:56:37.212Z,72.60
2022-08-29T19:59:39.527Z,72.77
2022-08-29T20:02:45.821Z,72.97
2022-08-29T20:05:48.717Z,72.98
2022-08-29T20:08:50.656Z,73.35
2022-08-29T20:11:53.532Z,73.61
2022-08-29T20:14:56.463Z,73.91
2022-08-29T20:17:59.949Z,74.23
2022-08-29T20:21:01.696Z,74.65
2022-08-29T20:24:04.539Z,75.03
2022-08-29T20:27:07.535Z,75.18
2022-08-29T20:30:13.620Z,75.62
2022-08-29T20:33:15.691Z,75.95
2022-08-29T20:36:38.985Z,76.06
2022-08-29T20:39:46.765Z,76.62
2022-08-29T20:42:48.469Z,76.85
2022-08-29T20:45:50.642Z,77.47
2022-08-29T20:48:52.379Z,77.91
2022-08-29T20:51:54.088Z,78.25
2022-08-29T20:54:55.807Z,78.09
2022-08-29T20:57:57.555Z,77.92
2022-08-29T21:01:00.585Z,78.03
2022-08-29T21:04:23.384Z,78.05
2022-08-29T21:07:26.101Z,78.21
2022-08-29T21:10:28.847Z,78.76
2022-08-29T21:13:30.905Z,79.07
2022-08-29T21:16:32.643Z,79.40
2022-08-29T21:19:34.647Z,79.40
2022-08-29T21:22:36.262Z,79.54
2022-08-29T21:25:40.192Z,79.75
2022-08-29T21:28:44.372Z,79.92
2022-08-29T21:31:50.981Z,80.53
2022-08-29T21:34:52.699Z,80.70
2022-08-29T21:37:54.355Z,80.97
2022-08-29T21:40:58.717Z,81.41
2022-08-29T21:44:00.357Z,81.70
2022-08-29T21:47:02.912Z,81.67
2022-08-29T21:50:05.946Z,81.76
2022-08-29T21:53:07.680Z,81.91
2022-08-29T21:56:09.412Z,82.05
2022-08-29T21:59:12.404Z,81.99
2022-08-29T22:02:15.135Z,81.90
2022-08-29T22:05:17.161Z,82.39
2022-08-29T22:08:20.978Z,82.60
2022-08-29T22:11:38.013Z,82.89
2022-08-29T22:14:58.371Z,83.48
2022-08-29T22:18:00.136Z,83.18
2022-08-29T22:21:02.422Z,82.89
2022-08-29T22:24:04.842Z,83.10
2022-08-29T22:27:07.511Z,83.35
2022-08-29T22:30:09.957Z,83.60
2022-08-29T22:33:16.524Z,83.87
2022-08-29T22:36:19.679Z,84.21
2022-08-29T22:39:21.575Z,84.71
2022-08-29T22:42:23.772Z,84.93
2022-08-29T22:45:26.105Z,85.18
2022-08-29T22:48:27.881Z,85.28
2022-08-29T22:51:29.690Z,85.46
2022-08-29T22:54:37.191Z,85.61
2022-08-29T22:57:39.687Z,86.08
2022-08-29T23:00:41.464Z,86.28
2022-08-29T23:03:43.118Z,86.64
2022-08-29T23:06:44.912Z,86.76
2022-08-29T23:09:46.815Z,87.12
2022-08-29T23:12:50.569Z,87.47
2022-08-29T23:15:52.444Z,87.61
2022-08-29T23:18:54.241Z,87.50
2022-08-29T23:21:55.909Z,87.52
2022-08-29T23:24:59.122Z,87.55
2022-08-29T23:28:01.163Z,87.72
2022-08-29T23:31:03.652Z,88.03
2022-08-29T23:34:05.491Z,88.23
2022-08-29T23:37:07.543Z,88.03
2022-08-29T23:40:09.769Z,88.04
2022-08-29T23:43:11.788Z,88.19
2022-08-29T23:46:13.981Z,88.63
2022-08-29T23:49:15.764Z,88.52
2022-08-29T23:52:18.022Z,88.45
2022-08-29T23:55:19.756Z,88.22
2022-08-29T23:58:21.527Z,88.40
